Mauston, WI

5:03 PM CST on February 26, 2017 (GMT -0600)
Juneau County Weather | | Change Station
Active Advisory: Flood Warning

Elev 873 ft 43.80 °N, 90.07 °W | Updated 0 second ago

Partly Cloudy
Partly Cloudy
38.8 °F
Feels Like 33 °F
N
8.3
Wind Variable Wind from West
Gusts 11.5 mph

Today
High -- | Low -- °F
--% Chance of Precip.
Yesterday
High -- | Low -- °F
Precip. -- in
Pressure 29.88 in
Visibility 10.0 miles
Clouds Scattered Clouds 5000 ft
Mostly Cloudy 6000 ft
Windchill 33 °F
Dew Point 27 °F
Humidity 62%
Rainfall 0.00 in
Snow Depth Not available.
6:41 AM 5:45 PM
New Moon, 0% visible
METAR KVOK 262258Z AUTO 25016G19KT 10SM SCT050 BKN060 03/M05 A2984 RMK AO2 SLP118 T00341047
Pressure 29.88 in
Visibility 10.0 miles
Clouds Scattered Clouds 5000 ft
Mostly Cloudy 6000 ft
Windchill 33 °F
Dew Point 27 °F
Humidity 62%
Rainfall 0.00 in
Snow Depth Not available.
6:41 AM 5:45 PM
New Moon, 0% visible
METAR KVOK 262258Z AUTO 25016G19KT 10SM SCT050 BKN060 03/M05 A2984 RMK AO2 SLP118 T00341047

Get Your Daily Forecast Email!

Thanks for signing up!

Be on the lookout for a verification email in your inbox.

You'll start receiving the daily forecast at 8 AM.

×

10-Day Weather Forecast

Almanac

Astronomy

Feb. 26, 2017 Rise Set
Actual Time
Civil Twilight
Nautical Twilight
Astronomical Twilight
Moon
Length of Visible Light
Length of Day
Tomorrow will be .
, % of the Moon is Illuminated

Today's Extremes

State Highs State Lows

Community

WunderPhotos

Upload Photos

1,962,540 photos uploaded!

WunderBlog® & News

Nearby

Air Quality

  Air Quality AQ Index Pollutant
Not available.

Snow Depth

Station Depth Elevation

Earthquake Activity

City Distance Mag. Time & Date
Minimum magnitude displayed is 2.5.

Coastal Water Temperatures

Place Temperature

Stations

Nearby Weather Stations

Station Location Temp. Windchill Dew Point Humidity Wind Precip. Elev Updated Type
                   

Watches & Warnings

Flood Warning
Issued: 2:52 PM CST Feb. 26, 2017 – National Weather Service

The Flood Warning continues for
the Yellow River at Necedah.
* Until Tuesday afternoon... or until the warning is cancelled.
* At 1:30 PM Sunday the stage was 15.2 feet.
* Flood stage is 15.0 feet.
* Minor flooding is occurring.
* Forecast... the river will continue to fall... dropping below flood
stage by Monday evening.


Lat... Lon 4415 9009 4415 9014 4395 9006 4396 9003


Hollan